createdAt,value
2017-04-02T00:07:19.180Z,45.3
2017-04-02T00:18:19.237Z,44.9
2017-04-02T00:29:18.546Z,44.7
2017-04-02T00:40:19.387Z,45.4
2017-04-02T00:51:18.579Z,45.1
2017-04-02T01:02:19.304Z,45.8
2017-04-02T01:13:19.015Z,45.3
2017-04-02T01:24:18.894Z,45.2
2017-04-02T01:35:19.141Z,44.9
2017-04-02T01:46:18.971Z,45.4
2017-04-02T01:57:19.345Z,45.1
2017-04-02T02:08:18.692Z,44.8
2017-04-02T02:19:18.997Z,44.8
2017-04-02T02:30:19.124Z,45.1
2017-04-02T02:41:19.125Z,45.5
2017-04-02T02:52:19.205Z,45.4
2017-04-02T03:03:18.775Z,44.6
2017-04-02T03:14:19.077Z,45.4
2017-04-02T03:25:18.519Z,44.9
2017-04-02T03:36:19.135Z,44.5
2017-04-02T03:47:18.793Z,44.9
2017-04-02T03:58:18.175Z,44.3
2017-04-02T04:09:18.621Z,44.6
2017-04-02T04:20:19.012Z,44.2
2017-04-02T04:31:18.513Z,44.2
2017-04-02T04:42:19.376Z,44.1
2017-04-02T04:53:18.584Z,44.1
2017-04-02T05:04:19.142Z,44.4
2017-04-02T05:15:18.437Z,44.3
2017-04-02T05:26:19.249Z,44
2017-04-02T05:37:19.785Z,44.1
2017-04-02T05:48:18.678Z,44.2
2017-04-02T05:59:18.565Z,44.2
2017-04-02T06:10:19.010Z,44.4
2017-04-02T06:21:18.975Z,44.1
2017-04-02T06:32:19.540Z,44.2
2017-04-02T06:43:19.044Z,41.3
2017-04-02T06:54:18.237Z,41
2017-04-02T07:05:19.114Z,40.5
2017-04-02T07:16:18.854Z,39.8
2017-04-02T07:27:18.778Z,39.1
2017-04-02T07:38:18.242Z,38.6
2017-04-02T07:49:18.980Z,37.6
2017-04-02T08:00:18.883Z,37.4
2017-04-02T08:11:20.105Z,37.2
2017-04-02T08:22:19.407Z,40.3
2017-04-02T08:33:18.700Z,42.4
2017-04-02T08:44:19.034Z,44.1
2017-04-02T08:55:19.505Z,44.6
2017-04-02T09:06:19.426Z,45.5
2017-04-02T09:17:22.457Z,46.6
2017-04-02T09:28:19.386Z,47.3
2017-04-02T09:39:18.462Z,45.3
2017-04-02T09:50:18.505Z,43.6
2017-04-02T10:01:19.029Z,43.3
2017-04-02T10:12:20.024Z,44.1
2017-04-02T10:23:18.896Z,44.4
2017-04-02T10:34:18.647Z,43.7
2017-04-02T10:45:18.683Z,43.4
2017-04-02T10:56:19.009Z,42.2
2017-04-02T11:07:18.879Z,42.3
2017-04-02T11:18:18.829Z,42.4
2017-04-02T11:29:19.168Z,44.1
2017-04-02T11:40:19.342Z,46.3
2017-04-02T11:51:18.743Z,46.6
2017-04-02T12:02:19.463Z,47.5
2017-04-02T12:13:19.104Z,49
2017-04-02T12:24:19.055Z,49.5
2017-04-02T12:35:18.842Z,49.8
2017-04-02T12:46:18.378Z,51.1
2017-04-02T12:57:19.411Z,46.7
2017-04-02T13:08:19.126Z,46.9
2017-04-02T13:19:18.737Z,46.5
2017-04-02T13:30:18.830Z,46.1
2017-04-02T13:41:18.787Z,45
2017-04-02T13:52:19.416Z,44
2017-04-02T14:03:19.023Z,44.2
2017-04-02T14:14:19.768Z,43.4
2017-04-02T14:25:19.139Z,42.8
2017-04-02T14:36:18.575Z,45.1
2017-04-02T14:47:19.517Z,46.8
2017-04-02T14:58:18.474Z,48.3
2017-04-02T15:09:18.672Z,48.6
2017-04-02T15:20:18.984Z,49.3
2017-04-02T15:31:19.492Z,49.3
2017-04-02T15:42:19.682Z,50.2
2017-04-02T15:53:18.990Z,50.9
2017-04-02T16:04:19.308Z,50.9
2017-04-02T16:15:18.517Z,47
2017-04-02T16:26:18.951Z,45.9
2017-04-02T16:37:19.638Z,45.6
2017-04-02T16:48:18.485Z,48.6
2017-04-02T16:59:18.498Z,44.5
2017-04-02T17:10:19.218Z,43.2
2017-04-02T17:21:19.151Z,42.7
2017-04-02T17:32:19.630Z,41.7
2017-04-02T17:43:19.008Z,40.9
2017-04-02T17:54:18.876Z,44.1
2017-04-02T18:05:18.521Z,45.5
2017-04-02T18:16:18.690Z,44.5
2017-04-02T18:27:19.230Z,44.3
2017-04-02T18:38:18.703Z,45.1
2017-04-02T18:49:18.712Z,70.5
2017-04-02T19:00:18.874Z,45.5
2017-04-02T19:11:18.460Z,46.3
2017-04-02T19:22:20.676Z,46
2017-04-02T19:33:19.013Z,42.8
2017-04-02T19:44:19.127Z,42.2
2017-04-02T19:55:19.262Z,41.5
2017-04-02T20:06:18.204Z,41
2017-04-02T20:17:19.901Z,39.5
2017-04-02T20:28:18.517Z,38.5
2017-04-02T20:39:18.395Z,38.1
2017-04-02T20:50:19.458Z,37.5
2017-04-02T21:01:18.464Z,38.8
2017-04-02T21:12:19.583Z,40.9
2017-04-02T21:23:18.883Z,41.2
2017-04-02T21:34:19.283Z,41.2
2017-04-02T21:45:18.445Z,42
2017-04-02T21:56:19.153Z,42.3
2017-04-02T22:07:21.623Z,42.9
2017-04-02T22:18:18.347Z,43.1
2017-04-02T22:29:18.862Z,43.3
2017-04-02T22:40:18.886Z,43.7
2017-04-02T22:51:18.695Z,44.3
2017-04-02T23:02:20.230Z,40.9
2017-04-02T23:13:18.607Z,40.3
2017-04-02T23:24:19.373Z,39.6
2017-04-02T23:35:19.145Z,39.6
2017-04-02T23:46:19.124Z,38.5
2017-04-02T23:57:19.345Z,37.2
